Terminal Aerodrome Forecast
Issued by NWS

Home | Current Version | Previous Version | Text Only | Print | Product List | Glossary On
Versions: 1 2 3 4 5 6 7 8 9 10 11 12 13 14 15 16
000
FTUS42 TJSJ 191100
TAFKPK
TAF
TKPK 191126Z 1912/2012 09014KT P6SM VCSH SCT017 SCT040
      TEMPO 1912/1914 VRB12KT 5SM -SHRA BKN017
     FM191430 09015KT P6SM SCT020 SCT050
     FM192230 07012KT P6SM FEW018 SCT050=

USA.gov is the U.S. government's official web portal to all federal, state and local government web resources and services.